sensor_id;sensor_type;location;lat;lon;timestamp;P1;durP1;ratioP1;P2;durP2;ratioP2
53903;SDS011;39812;52.430;16.936;2023-07-20T00:01:25;7.68;;;3.17;;
53903;SDS011;39812;52.430;16.936;2023-07-20T00:03:51;5.07;;;2.75;;
53903;SDS011;39812;52.430;16.936;2023-07-20T00:06:23;3.55;;;2.40;;
53903;SDS011;39812;52.430;16.936;2023-07-20T00:08:50;4.60;;;2.30;;
53903;SDS011;39812;52.430;16.936;2023-07-20T00:11:16;5.93;;;2.58;;
53903;SDS011;39812;52.430;16.936;2023-07-20T00:13:42;4.85;;;2.70;;
53903;SDS011;39812;52.430;16.936;2023-07-20T00:16:08;5.13;;;3.17;;
53903;SDS011;39812;52.430;16.936;2023-07-20T00:18:34;4.40;;;2.65;;
53903;SDS011;39812;52.430;16.936;2023-07-20T00:20:59;5.60;;;2.78;;
53903;SDS011;39812;52.430;16.936;2023-07-20T00:23:25;7.40;;;3.00;;
53903;SDS011;39812;52.430;16.936;2023-07-20T00:25:51;4.47;;;2.65;;
53903;SDS011;39812;52.430;16.936;2023-07-20T00:28:17;7.90;;;3.33;;
53903;SDS011;39812;52.430;16.936;2023-07-20T00:30:42;8.18;;;3.15;;
53903;SDS011;39812;52.430;16.936;2023-07-20T00:33:11;6.10;;;3.70;;
53903;SDS011;39812;52.430;16.936;2023-07-20T00:35:38;9.00;;;3.85;;
53903;SDS011;39812;52.430;16.936;2023-07-20T00:38:04;6.28;;;3.70;;
53903;SDS011;39812;52.430;16.936;2023-07-20T00:40:40;8.45;;;4.03;;
53903;SDS011;39812;52.430;16.936;2023-07-20T00:43:06;6.15;;;3.90;;
53903;SDS011;39812;52.430;16.936;2023-07-20T00:45:32;7.78;;;5.00;;
53903;SDS011;39812;52.430;16.936;2023-07-20T00:47:59;7.95;;;4.50;;
53903;SDS011;39812;52.430;16.936;2023-07-20T00:50:26;12.07;;;5.43;;
53903;SDS011;39812;52.430;16.936;2023-07-20T00:52:54;7.57;;;4.50;;
53903;SDS011;39812;52.430;16.936;2023-07-20T00:55:20;13.13;;;5.55;;
53903;SDS011;39812;52.430;16.936;2023-07-20T00:57:46;7.13;;;4.72;;
53903;SDS011;39812;52.430;16.936;2023-07-20T01:00:12;11.88;;;5.38;;
53903;SDS011;39812;52.430;16.936;2023-07-20T01:02:38;9.88;;;5.15;;
53903;SDS011;39812;52.430;16.936;2023-07-20T01:05:03;7.45;;;4.70;;
53903;SDS011;39812;52.430;16.936;2023-07-20T01:07:34;6.95;;;4.90;;
53903;SDS011;39812;52.430;16.936;2023-07-20T01:12:46;11.98;;;5.35;;
53903;SDS011;39812;52.430;16.936;2023-07-20T01:15:13;7.25;;;4.88;;
53903;SDS011;39812;52.430;16.936;2023-07-20T01:17:39;9.43;;;5.75;;
53903;SDS011;39812;52.430;16.936;2023-07-20T01:20:08;10.20;;;5.30;;
53903;SDS011;39812;52.430;16.936;2023-07-20T01:25:34;11.27;;;5.57;;
53903;SDS011;39812;52.430;16.936;2023-07-20T01:33:23;6.45;;;5.07;;
53903;SDS011;39812;52.430;16.936;2023-07-20T01:35:53;7.25;;;5.00;;
53903;SDS011;39812;52.430;16.936;2023-07-20T01:38:21;10.93;;;5.35;;
53903;SDS011;39812;52.430;16.936;2023-07-20T01:40:48;7.72;;;4.78;;
53903;SDS011;39812;52.430;16.936;2023-07-20T01:43:14;7.25;;;5.25;;
53903;SDS011;39812;52.430;16.936;2023-07-20T01:45:41;8.18;;;4.75;;
53903;SDS011;39812;52.430;16.936;2023-07-20T01:48:06;8.70;;;4.95;;
53903;SDS011;39812;52.430;16.936;2023-07-20T01:50:32;6.80;;;4.82;;
53903;SDS011;39812;52.430;16.936;2023-07-20T01:52:59;6.93;;;4.65;;
53903;SDS011;39812;52.430;16.936;2023-07-20T01:55:25;7.85;;;5.38;;
53903;SDS011;39812;52.430;16.936;2023-07-20T01:57:51;10.77;;;6.10;;
53903;SDS011;39812;52.430;16.936;2023-07-20T02:00:16;6.95;;;5.30;;
53903;SDS011;39812;52.430;16.936;2023-07-20T02:02:46;8.90;;;5.40;;
53903;SDS011;39812;52.430;16.936;2023-07-20T02:05:11;11.05;;;5.60;;
53903;SDS011;39812;52.430;16.936;2023-07-20T02:07:37;12.00;;;5.82;;
53903;SDS011;39812;52.430;16.936;2023-07-20T02:10:03;11.05;;;5.82;;
53903;SDS011;39812;52.430;16.936;2023-07-20T02:12:29;11.63;;;6.38;;
53903;SDS011;39812;52.430;16.936;2023-07-20T02:14:54;9.60;;;5.82;;
53903;SDS011;39812;52.430;16.936;2023-07-20T02:17:20;9.73;;;5.95;;
53903;SDS011;39812;52.430;16.936;2023-07-20T02:19:45;11.25;;;6.65;;
53903;SDS011;39812;52.430;16.936;2023-07-20T02:22:14;9.15;;;6.78;;
53903;SDS011;39812;52.430;16.936;2023-07-20T02:24:39;8.45;;;5.88;;
53903;SDS011;39812;52.430;16.936;2023-07-20T02:27:05;10.13;;;7.30;;
53903;SDS011;39812;52.430;16.936;2023-07-20T02:29:32;9.25;;;6.82;;
53903;SDS011;39812;52.430;16.936;2023-07-20T02:31:57;13.15;;;7.18;;
53903;SDS011;39812;52.430;16.936;2023-07-20T02:34:23;10.57;;;7.15;;
53903;SDS011;39812;52.430;16.936;2023-07-20T02:36:49;13.82;;;7.32;;
53903;SDS011;39812;52.430;16.936;2023-07-20T02:39:14;11.32;;;7.78;;
53903;SDS011;39812;52.430;16.936;2023-07-20T02:41:40;10.23;;;7.63;;
53903;SDS011;39812;52.430;16.936;2023-07-20T02:44:06;10.85;;;7.63;;
53903;SDS011;39812;52.430;16.936;2023-07-20T02:46:32;11.23;;;7.50;;
53903;SDS011;39812;52.430;16.936;2023-07-20T02:48:59;13.15;;;8.00;;
53903;SDS011;39812;52.430;16.936;2023-07-20T02:51:24;12.23;;;7.70;;
53903;SDS011;39812;52.430;16.936;2023-07-20T02:53:50;9.77;;;7.45;;
53903;SDS011;39812;52.430;16.936;2023-07-20T02:56:16;17.65;;;9.02;;
53903;SDS011;39812;52.430;16.936;2023-07-20T02:58:43;12.20;;;8.88;;
53903;SDS011;39812;52.430;16.936;2023-07-20T03:01:09;15.45;;;9.10;;
53903;SDS011;39812;52.430;16.936;2023-07-20T03:03:36;16.05;;;10.10;;
53903;SDS011;39812;52.430;16.936;2023-07-20T03:06:04;17.27;;;10.30;;
53903;SDS011;39812;52.430;16.936;2023-07-20T03:08:30;14.20;;;10.18;;
53903;SDS011;39812;52.430;16.936;2023-07-20T03:10:56;14.77;;;10.65;;
53903;SDS011;39812;52.430;16.936;2023-07-20T03:13:21;17.05;;;11.38;;
53903;SDS011;39812;52.430;16.936;2023-07-20T03:15:49;16.52;;;12.15;;
53903;SDS011;39812;52.430;16.936;2023-07-20T03:18:14;20.30;;;11.35;;
53903;SDS011;39812;52.430;16.936;2023-07-20T03:20:40;16.90;;;10.93;;
53903;SDS011;39812;52.430;16.936;2023-07-20T03:23:05;14.10;;;10.77;;
53903;SDS011;39812;52.430;16.936;2023-07-20T03:25:31;14.73;;;10.27;;
53903;SDS011;39812;52.430;16.936;2023-07-20T03:27:56;18.30;;;10.48;;
53903;SDS011;39812;52.430;16.936;2023-07-20T03:30:22;13.93;;;10.18;;
53903;SDS011;39812;52.430;16.936;2023-07-20T03:32:48;13.13;;;9.68;;
53903;SDS011;39812;52.430;16.936;2023-07-20T03:35:13;15.13;;;9.98;;
53903;SDS011;39812;52.430;16.936;2023-07-20T03:37:40;11.98;;;9.15;;
53903;SDS011;39812;52.430;16.936;2023-07-20T03:40:07;11.85;;;9.05;;
53903;SDS011;39812;52.430;16.936;2023-07-20T03:42:33;16.83;;;8.82;;
53903;SDS011;39812;52.430;16.936;2023-07-20T03:44:59;12.95;;;9.27;;
53903;SDS011;39812;52.430;16.936;2023-07-20T03:47:24;14.20;;;9.35;;
53903;SDS011;39812;52.430;16.936;2023-07-20T03:49:50;13.00;;;8.45;;
53903;SDS011;39812;52.430;16.936;2023-07-20T03:52:15;11.70;;;8.48;;
53903;SDS011;39812;52.430;16.936;2023-07-20T03:54:41;14.20;;;8.98;;
53903;SDS011;39812;52.430;16.936;2023-07-20T03:57:07;16.42;;;9.38;;
53903;SDS011;39812;52.430;16.936;2023-07-20T03:59:34;9.65;;;8.40;;
53903;SDS011;39812;52.430;16.936;2023-07-20T04:02:01;9.23;;;7.80;;
53903;SDS011;39812;52.430;16.936;2023-07-20T04:04:27;12.38;;;8.20;;
53903;SDS011;39812;52.430;16.936;2023-07-20T04:06:53;11.27;;;8.30;;
53903;SDS011;39812;52.430;16.936;2023-07-20T04:09:18;12.35;;;8.52;;
53903;SDS011;39812;52.430;16.936;2023-07-20T04:11:44;14.98;;;9.20;;
53903;SDS011;39812;52.430;16.936;2023-07-20T04:14:10;12.30;;;8.43;;
53903;SDS011;39812;52.430;16.936;2023-07-20T04:16:35;13.70;;;8.70;;
53903;SDS011;39812;52.430;16.936;2023-07-20T04:19:02;10.38;;;7.72;;
53903;SDS011;39812;52.430;16.936;2023-07-20T04:21:28;14.10;;;8.00;;
53903;SDS011;39812;52.430;16.936;2023-07-20T04:23:53;9.60;;;7.70;;
53903;SDS011;39812;52.430;16.936;2023-07-20T04:26:19;10.98;;;7.68;;
53903;SDS011;39812;52.430;16.936;2023-07-20T04:28:45;12.70;;;7.13;;
53903;SDS011;39812;52.430;16.936;2023-07-20T04:31:14;11.07;;;7.88;;
53903;SDS011;39812;52.430;16.936;2023-07-20T04:33:41;12.48;;;7.25;;
53903;SDS011;39812;52.430;16.936;2023-07-20T04:36:06;8.18;;;6.85;;
53903;SDS011;39812;52.430;16.936;2023-07-20T04:38:33;9.55;;;7.13;;
53903;SDS011;39812;52.430;16.936;2023-07-20T04:40:58;9.93;;;7.68;;
53903;SDS011;39812;52.430;16.936;2023-07-20T04:43:24;9.65;;;6.88;;
53903;SDS011;39812;52.430;16.936;2023-07-20T04:45:50;12.27;;;7.03;;
53903;SDS011;39812;52.430;16.936;2023-07-20T04:48:16;10.65;;;6.63;;
53903;SDS011;39812;52.430;16.936;2023-07-20T04:50:42;11.05;;;6.80;;
53903;SDS011;39812;52.430;16.936;2023-07-20T04:53:10;11.02;;;7.07;;
53903;SDS011;39812;52.430;16.936;2023-07-20T04:55:36;9.18;;;6.18;;
53903;SDS011;39812;52.430;16.936;2023-07-20T04:58:02;9.80;;;7.00;;
53903;SDS011;39812;52.430;16.936;2023-07-20T05:00:34;7.78;;;6.90;;
53903;SDS011;39812;52.430;16.936;2023-07-20T05:03:03;8.27;;;6.50;;
53903;SDS011;39812;52.430;16.936;2023-07-20T05:05:30;10.13;;;6.40;;
53903;SDS011;39812;52.430;16.936;2023-07-20T05:07:56;8.88;;;6.63;;
53903;SDS011;39812;52.430;16.936;2023-07-20T05:10:21;11.32;;;6.00;;
53903;SDS011;39812;52.430;16.936;2023-07-20T05:12:47;9.82;;;5.93;;
53903;SDS011;39812;52.430;16.936;2023-07-20T05:15:12;9.98;;;6.22;;
53903;SDS011;39812;52.430;16.936;2023-07-20T05:17:38;9.63;;;5.60;;
53903;SDS011;39812;52.430;16.936;2023-07-20T05:20:04;8.00;;;5.50;;
53903;SDS011;39812;52.430;16.936;2023-07-20T05:22:31;8.52;;;5.80;;
53903;SDS011;39812;52.430;16.936;2023-07-20T05:24:56;10.38;;;6.35;;
53903;SDS011;39812;52.430;16.936;2023-07-20T05:27:22;7.55;;;5.47;;
53903;SDS011;39812;52.430;16.936;2023-07-20T05:29:47;7.82;;;5.53;;
53903;SDS011;39812;52.430;16.936;2023-07-20T05:32:13;6.50;;;5.30;;
53903;SDS011;39812;52.430;16.936;2023-07-20T05:34:39;7.13;;;5.53;;
53903;SDS011;39812;52.430;16.936;2023-07-20T05:37:05;7.80;;;5.38;;
53903;SDS011;39812;52.430;16.936;2023-07-20T05:39:34;9.82;;;6.18;;
53903;SDS011;39812;52.430;16.936;2023-07-20T05:42:00;10.90;;;5.90;;
53903;SDS011;39812;52.430;16.936;2023-07-20T05:44:25;8.77;;;6.28;;
53903;SDS011;39812;52.430;16.936;2023-07-20T05:46:51;8.63;;;5.60;;
53903;SDS011;39812;52.430;16.936;2023-07-20T05:49:16;8.35;;;5.85;;
53903;SDS011;39812;52.430;16.936;2023-07-20T05:51:42;7.97;;;5.57;;
53903;SDS011;39812;52.430;16.936;2023-07-20T05:54:08;9.82;;;5.35;;
53903;SDS011;39812;52.430;16.936;2023-07-20T05:56:33;6.55;;;5.28;;
53903;SDS011;39812;52.430;16.936;2023-07-20T05:58:59;9.60;;;5.00;;
53903;SDS011;39812;52.430;16.936;2023-07-20T06:01:25;6.80;;;5.07;;
53903;SDS011;39812;52.430;16.936;2023-07-20T06:03:53;9.23;;;5.25;;
53903;SDS011;39812;52.430;16.936;2023-07-20T06:06:18;10.82;;;5.30;;
53903;SDS011;39812;52.430;16.936;2023-07-20T06:08:44;9.20;;;4.90;;
53903;SDS011;39812;52.430;16.936;2023-07-20T06:11:10;7.30;;;4.50;;
53903;SDS011;39812;52.430;16.936;2023-07-20T06:13:36;6.50;;;4.55;;
53903;SDS011;39812;52.430;16.936;2023-07-20T06:16:02;9.23;;;6.13;;
53903;SDS011;39812;52.430;16.936;2023-07-20T06:18:28;7.20;;;4.38;;
53903;SDS011;39812;52.430;16.936;2023-07-20T06:20:55;8.82;;;4.68;;
53903;SDS011;39812;52.430;16.936;2023-07-20T06:23:21;9.30;;;4.50;;
53903;SDS011;39812;52.430;16.936;2023-07-20T06:25:46;7.10;;;4.55;;
53903;SDS011;39812;52.430;16.936;2023-07-20T06:28:12;7.82;;;3.70;;
53903;SDS011;39812;52.430;16.936;2023-07-20T06:30:38;5.00;;;3.58;;
53903;SDS011;39812;52.430;16.936;2023-07-20T06:33:04;6.63;;;3.35;;
53903;SDS011;39812;52.430;16.936;2023-07-20T06:35:30;7.20;;;3.38;;
53903;SDS011;39812;52.430;16.936;2023-07-20T06:37:55;9.45;;;3.42;;
53903;SDS011;39812;52.430;16.936;2023-07-20T06:40:22;5.70;;;2.80;;
53903;SDS011;39812;52.430;16.936;2023-07-20T06:42:48;7.45;;;2.53;;
53903;SDS011;39812;52.430;16.936;2023-07-20T06:45:13;3.50;;;2.72;;
53903;SDS011;39812;52.430;16.936;2023-07-20T06:47:39;4.53;;;2.42;;
53903;SDS011;39812;52.430;16.936;2023-07-20T06:50:06;8.55;;;3.63;;
53903;SDS011;39812;52.430;16.936;2023-07-20T06:52:32;4.68;;;2.63;;
53903;SDS011;39812;52.430;16.936;2023-07-20T06:54:58;5.90;;;2.85;;
53903;SDS011;39812;52.430;16.936;2023-07-20T06:57:24;3.22;;;2.42;;
53903;SDS011;39812;52.430;16.936;2023-07-20T06:59:52;5.90;;;2.42;;
53903;SDS011;39812;52.430;16.936;2023-07-20T07:02:18;3.40;;;2.15;;
53903;SDS011;39812;52.430;16.936;2023-07-20T07:04:44;4.03;;;1.90;;
53903;SDS011;39812;52.430;16.936;2023-07-20T07:07:11;4.72;;;2.55;;
53903;SDS011;39812;52.430;16.936;2023-07-20T07:09:40;3.85;;;2.28;;
53903;SDS011;39812;52.430;16.936;2023-07-20T07:12:07;5.68;;;2.45;;
53903;SDS011;39812;52.430;16.936;2023-07-20T07:14:33;3.85;;;2.08;;
53903;SDS011;39812;52.430;16.936;2023-07-20T07:16:59;3.70;;;2.10;;
53903;SDS011;39812;52.430;16.936;2023-07-20T07:19:25;3.67;;;2.13;;
53903;SDS011;39812;52.430;16.936;2023-07-20T07:21:51;3.83;;;1.90;;
53903;SDS011;39812;52.430;16.936;2023-07-20T07:24:16;3.03;;;1.80;;
53903;SDS011;39812;52.430;16.936;2023-07-20T07:26:42;2.72;;;1.85;;
53903;SDS011;39812;52.430;16.936;2023-07-20T07:29:08;3.70;;;2.03;;
53903;SDS011;39812;52.430;16.936;2023-07-20T07:31:34;3.45;;;2.10;;
53903;SDS011;39812;52.430;16.936;2023-07-20T07:34:03;3.67;;;2.20;;
53903;SDS011;39812;52.430;16.936;2023-07-20T07:36:30;2.85;;;2.13;;
53903;SDS011;39812;52.430;16.936;2023-07-20T07:38:56;3.47;;;2.10;;
53903;SDS011;39812;52.430;16.936;2023-07-20T07:41:22;4.47;;;2.30;;
53903;SDS011;39812;52.430;16.936;2023-07-20T07:43:48;3.88;;;1.95;;
53903;SDS011;39812;52.430;16.936;2023-07-20T07:46:13;4.30;;;2.13;;
53903;SDS011;39812;52.430;16.936;2023-07-20T07:48:39;5.28;;;1.65;;
53903;SDS011;39812;52.430;16.936;2023-07-20T07:51:05;2.90;;;1.90;;
53903;SDS011;39812;52.430;16.936;2023-07-20T07:53:31;5.35;;;2.30;;
53903;SDS011;39812;52.430;16.936;2023-07-20T07:55:58;5.68;;;2.80;;
53903;SDS011;39812;52.430;16.936;2023-07-20T07:58:23;7.70;;;2.53;;
53903;SDS011;39812;52.430;16.936;2023-07-20T08:00:49;8.40;;;2.60;;
53903;SDS011;39812;52.430;16.936;2023-07-20T08:03:15;3.90;;;2.92;;
53903;SDS011;39812;52.430;16.936;2023-07-20T08:05:40;5.93;;;2.15;;
53903;SDS011;39812;52.430;16.936;2023-07-20T08:08:06;3.28;;;2.25;;
53903;SDS011;39812;52.430;16.936;2023-07-20T08:10:34;3.60;;;2.15;;
53903;SDS011;39812;52.430;16.936;2023-07-20T08:13:00;4.38;;;3.05;;
53903;SDS011;39812;52.430;16.936;2023-07-20T08:15:25;2.90;;;2.03;;
53903;SDS011;39812;52.430;16.936;2023-07-20T08:17:51;5.97;;;2.80;;
53903;SDS011;39812;52.430;16.936;2023-07-20T08:20:17;4.05;;;2.25;;
53903;SDS011;39812;52.430;16.936;2023-07-20T08:22:43;2.60;;;1.75;;
53903;SDS011;39812;52.430;16.936;2023-07-20T08:25:09;3.72;;;1.90;;
53903;SDS011;39812;52.430;16.936;2023-07-20T08:27:35;2.88;;;1.77;;
53903;SDS011;39812;52.430;16.936;2023-07-20T08:30:01;3.47;;;1.80;;
53903;SDS011;39812;52.430;16.936;2023-07-20T08:32:29;3.67;;;1.95;;
53903;SDS011;39812;52.430;16.936;2023-07-20T08:34:55;2.45;;;1.92;;
53903;SDS011;39812;52.430;16.936;2023-07-20T08:37:20;4.55;;;1.60;;
53903;SDS011;39812;52.430;16.936;2023-07-20T08:39:47;3.50;;;1.60;;
53903;SDS011;39812;52.430;16.936;2023-07-20T08:42:13;4.95;;;2.00;;
53903;SDS011;39812;52.430;16.936;2023-07-20T08:44:39;3.15;;;1.63;;
53903;SDS011;39812;52.430;16.936;2023-07-20T08:47:07;2.33;;;1.35;;
53903;SDS011;39812;52.430;16.936;2023-07-20T08:49:35;2.28;;;1.50;;
53903;SDS011;39812;52.430;16.936;2023-07-20T08:52:01;4.35;;;2.70;;
53903;SDS011;39812;52.430;16.936;2023-07-20T08:54:29;1.80;;;1.30;;
53903;SDS011;39812;52.430;16.936;2023-07-20T08:57:01;3.58;;;2.13;;
53903;SDS011;39812;52.430;16.936;2023-07-20T08:59:28;5.57;;;2.35;;
53903;SDS011;39812;52.430;16.936;2023-07-20T09:01:55;4.47;;;2.80;;
53903;SDS011;39812;52.430;16.936;2023-07-20T09:04:23;3.85;;;2.30;;
53903;SDS011;39812;52.430;16.936;2023-07-20T09:06:49;4.20;;;2.63;;
53903;SDS011;39812;52.430;16.936;2023-07-20T09:09:16;3.50;;;2.00;;
53903;SDS011;39812;52.430;16.936;2023-07-20T09:11:41;4.55;;;2.00;;
53903;SDS011;39812;52.430;16.936;2023-07-20T09:14:08;7.13;;;4.25;;
53903;SDS011;39812;52.430;16.936;2023-07-20T09:16:50;21.80;;;2.80;;
53903;SDS011;39812;52.430;16.936;2023-07-20T09:19:19;2.88;;;1.40;;
53903;SDS011;39812;52.430;16.936;2023-07-20T09:21:49;4.30;;;2.17;;
53903;SDS011;39812;52.430;16.936;2023-07-20T09:24:20;4.82;;;2.15;;
53903;SDS011;39812;52.430;16.936;2023-07-20T09:26:47;7.22;;;4.28;;
53903;SDS011;39812;52.430;16.936;2023-07-20T09:29:14;7.38;;;3.90;;
53903;SDS011;39812;52.430;16.936;2023-07-20T09:31:43;7.07;;;3.75;;
53903;SDS011;39812;52.430;16.936;2023-07-20T09:34:30;5.15;;;3.40;;
53903;SDS011;39812;52.430;16.936;2023-07-20T09:36:59;7.45;;;4.20;;
53903;SDS011;39812;52.430;16.936;2023-07-20T09:39:25;6.78;;;4.25;;
53903;SDS011;39812;52.430;16.936;2023-07-20T09:41:51;12.57;;;4.78;;
53903;SDS011;39812;52.430;16.936;2023-07-20T09:44:17;7.10;;;4.25;;
53903;SDS011;39812;52.430;16.936;2023-07-20T09:46:49;7.00;;;3.60;;
53903;SDS011;39812;52.430;16.936;2023-07-20T09:49:17;10.60;;;4.03;;
53903;SDS011;39812;52.430;16.936;2023-07-20T09:51:42;7.80;;;3.95;;
53903;SDS011;39812;52.430;16.936;2023-07-20T09:54:10;8.68;;;3.70;;
53903;SDS011;39812;52.430;16.936;2023-07-20T09:56:38;6.20;;;3.28;;
53903;SDS011;39812;52.430;16.936;2023-07-20T09:59:04;8.73;;;4.68;;
53903;SDS011;39812;52.430;16.936;2023-07-20T10:01:30;13.75;;;5.90;;
53903;SDS011;39812;52.430;16.936;2023-07-20T10:03:59;14.80;;;7.65;;
53903;SDS011;39812;52.430;16.936;2023-07-20T10:06:28;17.15;;;7.15;;
53903;SDS011;39812;52.430;16.936;2023-07-20T10:08:55;18.67;;;9.15;;
53903;SDS011;39812;52.430;16.936;2023-07-20T10:11:25;22.35;;;9.52;;
53903;SDS011;39812;52.430;16.936;2023-07-20T10:13:54;24.65;;;12.13;;
53903;SDS011;39812;52.430;16.936;2023-07-20T10:16:31;26.60;;;11.05;;
53903;SDS011;39812;52.430;16.936;2023-07-20T10:22:02;21.25;;;9.82;;
53903;SDS011;39812;52.430;16.936;2023-07-20T10:24:32;23.48;;;11.23;;
53903;SDS011;39812;52.430;16.936;2023-07-20T10:27:00;19.27;;;10.38;;
53903;SDS011;39812;52.430;16.936;2023-07-20T10:29:26;16.25;;;9.27;;
53903;SDS011;39812;52.430;16.936;2023-07-20T10:31:53;25.65;;;11.80;;
53903;SDS011;39812;52.430;16.936;2023-07-20T10:34:20;21.20;;;10.65;;
53903;SDS011;39812;52.430;16.936;2023-07-20T10:36:46;18.52;;;10.07;;
53903;SDS011;39812;52.430;16.936;2023-07-20T10:39:22;19.05;;;10.65;;
53903;SDS011;39812;52.430;16.936;2023-07-20T10:41:49;20.40;;;10.30;;
53903;SDS011;39812;52.430;16.936;2023-07-20T10:44:18;19.27;;;9.38;;
53903;SDS011;39812;52.430;16.936;2023-07-20T10:46:45;24.63;;;13.20;;
53903;SDS011;39812;52.430;16.936;2023-07-20T10:49:12;19.38;;;11.88;;
53903;SDS011;39812;52.430;16.936;2023-07-20T10:51:46;20.00;;;12.23;;
53903;SDS011;39812;52.430;16.936;2023-07-20T10:56:49;16.48;;;10.88;;
53903;SDS011;39812;52.430;16.936;2023-07-20T10:59:19;11.77;;;9.02;;
53903;SDS011;39812;52.430;16.936;2023-07-20T11:01:46;10.27;;;8.02;;
53903;SDS011;39812;52.430;16.936;2023-07-20T11:04:14;8.45;;;6.93;;
53903;SDS011;39812;52.430;16.936;2023-07-20T11:06:54;7.47;;;5.60;;
53903;SDS011;39812;52.430;16.936;2023-07-20T11:09:21;4.68;;;4.20;;
53903;SDS011;39812;52.430;16.936;2023-07-20T11:11:51;5.05;;;3.72;;
53903;SDS011;39812;52.430;16.936;2023-07-20T11:14:34;3.15;;;2.80;;
53903;SDS011;39812;52.430;16.936;2023-07-20T11:17:12;5.10;;;2.70;;
53903;SDS011;39812;52.430;16.936;2023-07-20T11:19:38;3.58;;;2.40;;
53903;SDS011;39812;52.430;16.936;2023-07-20T11:22:06;3.13;;;2.08;;
53903;SDS011;39812;52.430;16.936;2023-07-20T11:24:41;2.75;;;1.60;;
53903;SDS011;39812;52.430;16.936;2023-07-20T11:27:07;1.52;;;1.20;;
53903;SDS011;39812;52.430;16.936;2023-07-20T11:29:34;5.38;;;1.30;;
53903;SDS011;39812;52.430;16.936;2023-07-20T11:32:00;1.73;;;1.20;;
53903;SDS011;39812;52.430;16.936;2023-07-20T11:34:29;2.65;;;0.90;;
53903;SDS011;39812;52.430;16.936;2023-07-20T11:36:55;1.40;;;1.00;;
53903;SDS011;39812;52.430;16.936;2023-07-20T11:39:22;0.77;;;0.70;;
53903;SDS011;39812;52.430;16.936;2023-07-20T11:41:53;1.00;;;0.80;;
53903;SDS011;39812;52.430;16.936;2023-07-20T11:44:19;3.45;;;1.00;;
53903;SDS011;39812;52.430;16.936;2023-07-20T11:46:51;1.42;;;1.00;;
53903;SDS011;39812;52.430;16.936;2023-07-20T11:49:17;1.73;;;1.00;;
53903;SDS011;39812;52.430;16.936;2023-07-20T11:51:43;1.30;;;0.80;;
53903;SDS011;39812;52.430;16.936;2023-07-20T11:54:09;1.15;;;0.80;;
53903;SDS011;39812;52.430;16.936;2023-07-20T11:56:35;1.77;;;1.13;;
53903;SDS011;39812;52.430;16.936;2023-07-20T11:59:01;2.10;;;0.93;;
53903;SDS011;39812;52.430;16.936;2023-07-20T12:01:28;2.38;;;0.98;;
53903;SDS011;39812;52.430;16.936;2023-07-20T12:03:56;1.73;;;0.70;;
53903;SDS011;39812;52.430;16.936;2023-07-20T12:06:23;1.27;;;0.60;;
53903;SDS011;39812;52.430;16.936;2023-07-20T12:08:50;2.45;;;0.60;;
53903;SDS011;39812;52.430;16.936;2023-07-20T12:11:30;0.85;;;0.50;;
53903;SDS011;39812;52.430;16.936;2023-07-20T12:13:57;0.88;;;0.60;;
53903;SDS011;39812;52.430;16.936;2023-07-20T12:16:26;0.90;;;0.60;;
53903;SDS011;39812;52.430;16.936;2023-07-20T12:19:26;0.80;;;0.60;;
53903;SDS011;39812;52.430;16.936;2023-07-20T12:21:44;0.73;;;0.43;;
53903;SDS011;39812;52.430;16.936;2023-07-20T12:24:11;3.00;;;0.40;;
53903;SDS011;39812;52.430;16.936;2023-07-20T12:26:36;0.60;;;0.30;;
53903;SDS011;39812;52.430;16.936;2023-07-20T12:29:02;1.15;;;0.40;;
53903;SDS011;39812;52.430;16.936;2023-07-20T12:31:28;1.52;;;0.60;;
53903;SDS011;39812;52.430;16.936;2023-07-20T12:33:55;0.60;;;0.40;;
53903;SDS011;39812;52.430;16.936;2023-07-20T12:36:22;1.13;;;0.60;;
53903;SDS011;39812;52.430;16.936;2023-07-20T12:38:48;0.70;;;0.60;;
53903;SDS011;39812;52.430;16.936;2023-07-20T12:41:13;0.60;;;0.50;;
53903;SDS011;39812;52.430;16.936;2023-07-20T12:43:40;1.27;;;0.57;;
53903;SDS011;39812;52.430;16.936;2023-07-20T12:46:10;1.13;;;0.55;;
53903;SDS011;39812;52.430;16.936;2023-07-20T12:48:39;0.95;;;0.68;;
53903;SDS011;39812;52.430;16.936;2023-07-20T12:51:07;1.73;;;0.80;;
53903;SDS011;39812;52.430;16.936;2023-07-20T12:53:33;0.75;;;0.70;;
53903;SDS011;39812;52.430;16.936;2023-07-20T12:55:59;0.85;;;0.70;;
53903;SDS011;39812;52.430;16.936;2023-07-20T12:58:25;1.00;;;0.60;;
53903;SDS011;39812;52.430;16.936;2023-07-20T13:00:51;1.13;;;0.50;;
53903;SDS011;39812;52.430;16.936;2023-07-20T13:03:17;2.42;;;0.47;;
53903;SDS011;39812;52.430;16.936;2023-07-20T13:05:44;0.47;;;0.45;;
53903;SDS011;39812;52.430;16.936;2023-07-20T13:08:10;0.65;;;0.60;;
53903;SDS011;39812;52.430;16.936;2023-07-20T13:10:36;1.92;;;0.70;;
53903;SDS011;39812;52.430;16.936;2023-07-20T13:13:03;0.60;;;0.60;;
53903;SDS011;39812;52.430;16.936;2023-07-20T13:15:29;1.23;;;0.70;;
53903;SDS011;39812;52.430;16.936;2023-07-20T13:17:59;1.33;;;0.70;;
53903;SDS011;39812;52.430;16.936;2023-07-20T13:20:25;1.73;;;0.70;;
53903;SDS011;39812;52.430;16.936;2023-07-20T13:22:51;1.33;;;0.88;;
53903;SDS011;39812;52.430;16.936;2023-07-20T13:25:17;1.27;;;0.85;;
53903;SDS011;39812;52.430;16.936;2023-07-20T13:27:43;1.48;;;0.73;;
53903;SDS011;39812;52.430;16.936;2023-07-20T13:30:09;1.50;;;0.88;;
53903;SDS011;39812;52.430;16.936;2023-07-20T13:32:41;1.08;;;0.70;;
53903;SDS011;39812;52.430;16.936;2023-07-20T13:35:13;1.25;;;0.70;;
53903;SDS011;39812;52.430;16.936;2023-07-20T13:37:39;0.85;;;0.70;;
53903;SDS011;39812;52.430;16.936;2023-07-20T13:40:05;1.27;;;0.68;;
53903;SDS011;39812;52.430;16.936;2023-07-20T13:42:32;0.95;;;0.68;;
53903;SDS011;39812;52.430;16.936;2023-07-20T13:44:58;1.75;;;0.60;;
53903;SDS011;39812;52.430;16.936;2023-07-20T13:47:23;0.80;;;0.60;;
53903;SDS011;39812;52.430;16.936;2023-07-20T13:49:49;1.15;;;0.60;;
53903;SDS011;39812;52.430;16.936;2023-07-20T13:52:15;1.45;;;0.80;;
53903;SDS011;39812;52.430;16.936;2023-07-20T13:54:41;0.93;;;0.70;;
53903;SDS011;39812;52.430;16.936;2023-07-20T13:57:06;1.80;;;1.10;;
53903;SDS011;39812;52.430;16.936;2023-07-20T13:59:32;0.93;;;0.60;;
53903;SDS011;39812;52.430;16.936;2023-07-20T14:02:04;4.05;;;0.95;;
53903;SDS011;39812;52.430;16.936;2023-07-20T14:04:48;2.10;;;0.77;;
53903;SDS011;39812;52.430;16.936;2023-07-20T14:07:14;1.15;;;0.70;;
53903;SDS011;39812;52.430;16.936;2023-07-20T14:09:40;1.05;;;0.70;;
53903;SDS011;39812;52.430;16.936;2023-07-20T14:12:06;1.55;;;0.77;;
53903;SDS011;39812;52.430;16.936;2023-07-20T14:14:33;1.13;;;0.60;;
53903;SDS011;39812;52.430;16.936;2023-07-20T14:16:59;1.23;;;0.73;;
53903;SDS011;39812;52.430;16.936;2023-07-20T14:19:24;1.13;;;0.70;;
53903;SDS011;39812;52.430;16.936;2023-07-20T14:21:50;1.20;;;0.80;;
53903;SDS011;39812;52.430;16.936;2023-07-20T14:24:15;1.42;;;0.90;;
53903;SDS011;39812;52.430;16.936;2023-07-20T14:26:41;1.17;;;0.60;;
53903;SDS011;39812;52.430;16.936;2023-07-20T14:29:06;2.05;;;0.63;;
53903;SDS011;39812;52.430;16.936;2023-07-20T14:31:32;1.27;;;0.73;;
53903;SDS011;39812;52.430;16.936;2023-07-20T14:33:58;1.17;;;0.77;;
53903;SDS011;39812;52.430;16.936;2023-07-20T14:36:23;2.38;;;0.80;;
53903;SDS011;39812;52.430;16.936;2023-07-20T14:38:49;1.63;;;0.85;;
53903;SDS011;39812;52.430;16.936;2023-07-20T14:41:14;1.00;;;0.90;;
53903;SDS011;39812;52.430;16.936;2023-07-20T14:43:40;1.15;;;0.80;;
53903;SDS011;39812;52.430;16.936;2023-07-20T14:46:06;1.30;;;0.80;;